LTAT/MLX METAR and TAF weather

Enter ICAO airport designator
Station Type Date Time Source
LTAT METAR 2019/02/21 11:20 UTC NOAA

LTAT 211120Z VRB03KT 9999 SCT040 11/M01 Q1020 NOSIG


Station Type Date Time Source
LTAT Decoded METAR 2019/02/21 11:20 UTC NOAA

Malatya / Erhac, Turkey (LTAT) 38-26N 038-05E 849M
Feb 21, 2019 - 06:20 AM EST / 2019.02.21 1120 UTC
Wind: Variable at 3 MPH (3 KT):0
Visibility: greater than 7 mile(s):0
Sky conditions: partly cloudy
Temperature: 51 F (11 C)
Dew Point: 30 F (-1 C)
Relative Humidity: 43%
Pressure (altimeter): 30.12 in. Hg (1020 hPa)
ob: LTAT 211120Z VRB03KT 9999 SCT040 11/M01 Q1020 NOSIG
cycle: 11

Station Type Date Time Source
LTAT TAF 2019/02/21 12:03 UTC NOAA

TAF LTAT 211040Z 2112/2212 VRB02KT 9999 SCT040 BKN100
BECMG 2118/2120 CAVOK
BECMG 2205/2207 SCT040 BKN100


Example: see airport list